sensor_id;sensor_type;location;lat;lon;timestamp;P1;durP1;ratioP1;P2;durP2;ratioP2
66559;SDS011;53413;49.878;8.142;2022-09-09T00:00:20;3.72;;;1.20;;
66559;SDS011;53413;49.878;8.142;2022-09-09T00:05:38;4.30;;;1.60;;
66559;SDS011;53413;49.878;8.142;2022-09-09T00:08:14;4.23;;;1.30;;
66559;SDS011;53413;49.878;8.142;2022-09-09T00:10:45;4.38;;;1.48;;
66559;SDS011;53413;49.878;8.142;2022-09-09T00:16:21;5.03;;;1.58;;
66559;SDS011;53413;49.878;8.142;2022-09-09T00:21:47;4.37;;;1.50;;
66559;SDS011;53413;49.878;8.142;2022-09-09T00:30:15;4.68;;;1.63;;
66559;SDS011;53413;49.878;8.142;2022-09-09T00:32:44;5.47;;;1.60;;
66559;SDS011;53413;49.878;8.142;2022-09-09T00:35:16;4.77;;;1.50;;
66559;SDS011;53413;49.878;8.142;2022-09-09T00:37:43;3.83;;;1.55;;
66559;SDS011;53413;49.878;8.142;2022-09-09T00:43:04;6.13;;;1.60;;
66559;SDS011;53413;49.878;8.142;2022-09-09T00:48:33;5.30;;;1.60;;
66559;SDS011;53413;49.878;8.142;2022-09-09T00:51:13;4.35;;;1.50;;
66559;SDS011;53413;49.878;8.142;2022-09-09T00:56:35;4.72;;;1.70;;
66559;SDS011;53413;49.878;8.142;2022-09-09T01:01:35;5.20;;;1.67;;
66559;SDS011;53413;49.878;8.142;2022-09-09T01:04:01;5.90;;;1.60;;
66559;SDS011;53413;49.878;8.142;2022-09-09T01:06:34;5.03;;;1.60;;
66559;SDS011;53413;49.878;8.142;2022-09-09T01:17:09;5.20;;;1.65;;
66559;SDS011;53413;49.878;8.142;2022-09-09T01:22:25;4.38;;;1.70;;
66559;SDS011;53413;49.878;8.142;2022-09-09T01:27:32;4.75;;;1.70;;
66559;SDS011;53413;49.878;8.142;2022-09-09T01:29:59;5.57;;;1.58;;
66559;SDS011;53413;49.878;8.142;2022-09-09T01:35:10;5.30;;;1.60;;
66559;SDS011;53413;49.878;8.142;2022-09-09T01:37:45;5.70;;;1.77;;
66559;SDS011;53413;49.878;8.142;2022-09-09T01:40:11;4.50;;;1.50;;
66559;SDS011;53413;49.878;8.142;2022-09-09T01:42:36;6.47;;;1.60;;
66559;SDS011;53413;49.878;8.142;2022-09-09T01:45:02;5.00;;;1.70;;
66559;SDS011;53413;49.878;8.142;2022-09-09T01:47:28;5.07;;;1.75;;
66559;SDS011;53413;49.878;8.142;2022-09-09T01:49:54;4.97;;;1.70;;
66559;SDS011;53413;49.878;8.142;2022-09-09T01:52:19;5.77;;;1.63;;
66559;SDS011;53413;49.878;8.142;2022-09-09T01:54:44;3.73;;;1.40;;
66559;SDS011;53413;49.878;8.142;2022-09-09T02:00:21;5.25;;;1.70;;
66559;SDS011;53413;49.878;8.142;2022-09-09T02:05:27;6.90;;;1.70;;
66559;SDS011;53413;49.878;8.142;2022-09-09T02:08:00;5.78;;;1.50;;
66559;SDS011;53413;49.878;8.142;2022-09-09T02:10:37;5.35;;;1.60;;
66559;SDS011;53413;49.878;8.142;2022-09-09T02:13:10;4.40;;;1.52;;
66559;SDS011;53413;49.878;8.142;2022-09-09T02:18:32;4.60;;;1.40;;
66559;SDS011;53413;49.878;8.142;2022-09-09T02:21:02;4.43;;;1.40;;
66559;SDS011;53413;49.878;8.142;2022-09-09T02:23:28;5.78;;;1.83;;
66559;SDS011;53413;49.878;8.142;2022-09-09T02:25:53;5.30;;;1.83;;
66559;SDS011;53413;49.878;8.142;2022-09-09T02:28:22;5.00;;;1.80;;
66559;SDS011;53413;49.878;8.142;2022-09-09T02:30:50;6.85;;;1.40;;
66559;SDS011;53413;49.878;8.142;2022-09-09T02:33:20;3.90;;;1.58;;
66559;SDS011;53413;49.878;8.142;2022-09-09T02:35:50;7.93;;;1.70;;
66559;SDS011;53413;49.878;8.142;2022-09-09T02:38:17;5.07;;;1.55;;
66559;SDS011;53413;49.878;8.142;2022-09-09T02:40:46;6.30;;;1.60;;
66559;SDS011;53413;49.878;8.142;2022-09-09T02:43:13;6.78;;;1.60;;
66559;SDS011;53413;49.878;8.142;2022-09-09T02:45:42;4.55;;;1.48;;
66559;SDS011;53413;49.878;8.142;2022-09-09T02:50:45;6.10;;;1.37;;
66559;SDS011;53413;49.878;8.142;2022-09-09T02:53:17;6.05;;;1.52;;
66559;SDS011;53413;49.878;8.142;2022-09-09T02:55:58;6.82;;;1.60;;
66559;SDS011;53413;49.878;8.142;2022-09-09T02:58:30;6.05;;;1.50;;
66559;SDS011;53413;49.878;8.142;2022-09-09T03:00:56;6.10;;;1.48;;
66559;SDS011;53413;49.878;8.142;2022-09-09T03:03:22;4.90;;;1.40;;
66559;SDS011;53413;49.878;8.142;2022-09-09T03:05:48;6.65;;;1.55;;
66559;SDS011;53413;49.878;8.142;2022-09-09T03:08:14;5.80;;;1.60;;
66559;SDS011;53413;49.878;8.142;2022-09-09T03:10:40;5.38;;;1.50;;
66559;SDS011;53413;49.878;8.142;2022-09-09T03:13:06;5.65;;;1.60;;
66559;SDS011;53413;49.878;8.142;2022-09-09T03:15:33;7.07;;;1.58;;
66559;SDS011;53413;49.878;8.142;2022-09-09T03:17:59;7.03;;;1.70;;
66559;SDS011;53413;49.878;8.142;2022-09-09T03:20:26;7.20;;;1.60;;
66559;SDS011;53413;49.878;8.142;2022-09-09T03:22:53;6.68;;;1.67;;
66559;SDS011;53413;49.878;8.142;2022-09-09T03:25:19;5.70;;;1.60;;
66559;SDS011;53413;49.878;8.142;2022-09-09T03:27:44;5.07;;;1.60;;
66559;SDS011;53413;49.878;8.142;2022-09-09T03:30:10;6.20;;;1.60;;
66559;SDS011;53413;49.878;8.142;2022-09-09T03:32:35;5.73;;;1.90;;
66559;SDS011;53413;49.878;8.142;2022-09-09T03:35:01;6.22;;;1.75;;
66559;SDS011;53413;49.878;8.142;2022-09-09T03:37:27;7.50;;;1.50;;
66559;SDS011;53413;49.878;8.142;2022-09-09T03:39:52;5.88;;;1.60;;
66559;SDS011;53413;49.878;8.142;2022-09-09T03:42:19;5.07;;;1.50;;
66559;SDS011;53413;49.878;8.142;2022-09-09T03:44:46;6.13;;;1.48;;
66559;SDS011;53413;49.878;8.142;2022-09-09T03:47:15;6.00;;;1.42;;
66559;SDS011;53413;49.878;8.142;2022-09-09T03:49:42;5.10;;;1.50;;
66559;SDS011;53413;49.878;8.142;2022-09-09T03:52:08;5.40;;;1.60;;
66559;SDS011;53413;49.878;8.142;2022-09-09T03:54:34;7.13;;;1.60;;
66559;SDS011;53413;49.878;8.142;2022-09-09T03:57:00;5.72;;;1.60;;
66559;SDS011;53413;49.878;8.142;2022-09-09T03:59:26;6.70;;;1.50;;
66559;SDS011;53413;49.878;8.142;2022-09-09T04:01:52;4.43;;;1.30;;
66559;SDS011;53413;49.878;8.142;2022-09-09T04:04:18;5.43;;;1.27;;
66559;SDS011;53413;49.878;8.142;2022-09-09T04:06:45;7.43;;;1.53;;
66559;SDS011;53413;49.878;8.142;2022-09-09T04:09:11;6.00;;;1.30;;
66559;SDS011;53413;49.878;8.142;2022-09-09T04:11:36;4.80;;;1.20;;
66559;SDS011;53413;49.878;8.142;2022-09-09T04:14:02;5.50;;;1.30;;
66559;SDS011;53413;49.878;8.142;2022-09-09T04:16:27;5.20;;;1.40;;
66559;SDS011;53413;49.878;8.142;2022-09-09T04:18:53;5.47;;;1.30;;
66559;SDS011;53413;49.878;8.142;2022-09-09T04:21:18;5.13;;;1.40;;
66559;SDS011;53413;49.878;8.142;2022-09-09T04:23:44;4.37;;;1.30;;
66559;SDS011;53413;49.878;8.142;2022-09-09T04:26:09;4.73;;;1.30;;
66559;SDS011;53413;49.878;8.142;2022-09-09T04:28:35;4.72;;;1.50;;
66559;SDS011;53413;49.878;8.142;2022-09-09T04:31:08;5.20;;;1.40;;
66559;SDS011;53413;49.878;8.142;2022-09-09T04:33:46;5.95;;;1.45;;
66559;SDS011;53413;49.878;8.142;2022-09-09T04:36:11;4.73;;;1.40;;
66559;SDS011;53413;49.878;8.142;2022-09-09T04:38:37;8.05;;;1.55;;
66559;SDS011;53413;49.878;8.142;2022-09-09T04:41:03;5.20;;;1.30;;
66559;SDS011;53413;49.878;8.142;2022-09-09T04:43:28;5.55;;;1.30;;
66559;SDS011;53413;49.878;8.142;2022-09-09T04:45:55;4.35;;;1.38;;
66559;SDS011;53413;49.878;8.142;2022-09-09T04:48:21;4.40;;;1.27;;
66559;SDS011;53413;49.878;8.142;2022-09-09T04:53:04;5.82;;;1.35;;
66559;SDS011;53413;49.878;8.142;2022-09-09T04:55:30;6.30;;;1.40;;
66559;SDS011;53413;49.878;8.142;2022-09-09T04:57:56;5.18;;;1.40;;
66559;SDS011;53413;49.878;8.142;2022-09-09T05:00:23;4.72;;;1.40;;
66559;SDS011;53413;49.878;8.142;2022-09-09T05:02:49;5.30;;;1.30;;
66559;SDS011;53413;49.878;8.142;2022-09-09T05:05:16;5.40;;;1.40;;
66559;SDS011;53413;49.878;8.142;2022-09-09T05:07:41;5.88;;;1.50;;
66559;SDS011;53413;49.878;8.142;2022-09-09T05:10:07;4.53;;;1.30;;
66559;SDS011;53413;49.878;8.142;2022-09-09T05:12:34;4.78;;;1.15;;
66559;SDS011;53413;49.878;8.142;2022-09-09T05:15:00;6.13;;;1.40;;
66559;SDS011;53413;49.878;8.142;2022-09-09T05:17:25;6.43;;;1.50;;
66559;SDS011;53413;49.878;8.142;2022-09-09T05:19:51;6.00;;;1.33;;
66559;SDS011;53413;49.878;8.142;2022-09-09T05:22:19;4.30;;;1.50;;
66559;SDS011;53413;49.878;8.142;2022-09-09T05:24:46;4.93;;;1.30;;
66559;SDS011;53413;49.878;8.142;2022-09-09T05:27:11;5.50;;;1.40;;
66559;SDS011;53413;49.878;8.142;2022-09-09T05:29:37;4.60;;;1.40;;
66559;SDS011;53413;49.878;8.142;2022-09-09T05:32:03;5.40;;;1.50;;
66559;SDS011;53413;49.878;8.142;2022-09-09T05:34:29;4.47;;;1.27;;
66559;SDS011;53413;49.878;8.142;2022-09-09T05:36:54;6.70;;;1.50;;
66559;SDS011;53413;49.878;8.142;2022-09-09T05:39:19;4.50;;;1.20;;
66559;SDS011;53413;49.878;8.142;2022-09-09T05:41:45;6.23;;;1.40;;
66559;SDS011;53413;49.878;8.142;2022-09-09T05:44:11;4.70;;;1.27;;
66559;SDS011;53413;49.878;8.142;2022-09-09T05:46:36;4.90;;;1.40;;
66559;SDS011;53413;49.878;8.142;2022-09-09T05:49:02;4.70;;;1.60;;
66559;SDS011;53413;49.878;8.142;2022-09-09T05:51:28;5.18;;;1.50;;
66559;SDS011;53413;49.878;8.142;2022-09-09T05:53:55;6.25;;;1.65;;
66559;SDS011;53413;49.878;8.142;2022-09-09T05:56:24;7.18;;;1.60;;
66559;SDS011;53413;49.878;8.142;2022-09-09T05:58:52;5.72;;;1.60;;
66559;SDS011;53413;49.878;8.142;2022-09-09T06:01:22;6.38;;;1.70;;
66559;SDS011;53413;49.878;8.142;2022-09-09T06:03:50;7.00;;;1.85;;
66559;SDS011;53413;49.878;8.142;2022-09-09T06:06:17;6.18;;;1.73;;
66559;SDS011;53413;49.878;8.142;2022-09-09T06:08:47;5.00;;;1.70;;
66559;SDS011;53413;49.878;8.142;2022-09-09T06:11:17;5.45;;;1.77;;
66559;SDS011;53413;49.878;8.142;2022-09-09T06:13:44;5.95;;;1.70;;
66559;SDS011;53413;49.878;8.142;2022-09-09T06:16:11;5.32;;;1.70;;
66559;SDS011;53413;49.878;8.142;2022-09-09T06:18:39;4.68;;;1.88;;
66559;SDS011;53413;49.878;8.142;2022-09-09T06:21:06;4.97;;;1.75;;
66559;SDS011;53413;49.878;8.142;2022-09-09T06:23:34;4.95;;;1.80;;
66559;SDS011;53413;49.878;8.142;2022-09-09T06:28:33;6.70;;;1.83;;
66559;SDS011;53413;49.878;8.142;2022-09-09T06:31:02;5.00;;;1.67;;
66559;SDS011;53413;49.878;8.142;2022-09-09T06:33:37;6.10;;;2.00;;
66559;SDS011;53413;49.878;8.142;2022-09-09T06:36:16;8.30;;;2.17;;
66559;SDS011;53413;49.878;8.142;2022-09-09T06:38:43;6.68;;;2.50;;
66559;SDS011;53413;49.878;8.142;2022-09-09T06:41:10;6.57;;;2.50;;
66559;SDS011;53413;49.878;8.142;2022-09-09T06:43:37;5.88;;;2.60;;
66559;SDS011;53413;49.878;8.142;2022-09-09T06:46:05;5.50;;;2.10;;
66559;SDS011;53413;49.878;8.142;2022-09-09T06:48:33;5.38;;;2.40;;
66559;SDS011;53413;49.878;8.142;2022-09-09T06:51:05;7.25;;;2.88;;
66559;SDS011;53413;49.878;8.142;2022-09-09T06:53:51;8.02;;;2.80;;
66559;SDS011;53413;49.878;8.142;2022-09-09T06:56:26;7.07;;;3.05;;
66559;SDS011;53413;49.878;8.142;2022-09-09T06:58:56;5.75;;;2.92;;
66559;SDS011;53413;49.878;8.142;2022-09-09T07:01:27;7.47;;;2.70;;
66559;SDS011;53413;49.878;8.142;2022-09-09T07:03:55;5.55;;;2.38;;
66559;SDS011;53413;49.878;8.142;2022-09-09T07:06:24;5.85;;;2.42;;
66559;SDS011;53413;49.878;8.142;2022-09-09T07:08:52;8.25;;;2.58;;
66559;SDS011;53413;49.878;8.142;2022-09-09T07:11:19;4.78;;;2.40;;
66559;SDS011;53413;49.878;8.142;2022-09-09T07:13:45;5.15;;;2.10;;
66559;SDS011;53413;49.878;8.142;2022-09-09T07:16:13;5.18;;;2.28;;
66559;SDS011;53413;49.878;8.142;2022-09-09T07:18:40;7.72;;;2.75;;
66559;SDS011;53413;49.878;8.142;2022-09-09T07:21:06;6.50;;;2.60;;
66559;SDS011;53413;49.878;8.142;2022-09-09T07:23:33;7.43;;;3.00;;
66559;SDS011;53413;49.878;8.142;2022-09-09T07:26:00;7.03;;;3.10;;
66559;SDS011;53413;49.878;8.142;2022-09-09T07:28:26;10.67;;;2.40;;
66559;SDS011;53413;49.878;8.142;2022-09-09T07:30:57;6.35;;;2.80;;
66559;SDS011;53413;49.878;8.142;2022-09-09T07:33:24;5.90;;;2.47;;
66559;SDS011;53413;49.878;8.142;2022-09-09T07:35:50;5.72;;;2.30;;
66559;SDS011;53413;49.878;8.142;2022-09-09T07:38:17;7.63;;;2.60;;
66559;SDS011;53413;49.878;8.142;2022-09-09T07:40:44;6.93;;;2.57;;
66559;SDS011;53413;49.878;8.142;2022-09-09T07:43:10;5.18;;;2.42;;
66559;SDS011;53413;49.878;8.142;2022-09-09T07:45:36;5.40;;;2.60;;
66559;SDS011;53413;49.878;8.142;2022-09-09T07:48:02;5.78;;;2.42;;
66559;SDS011;53413;49.878;8.142;2022-09-09T07:50:28;5.88;;;2.17;;
66559;SDS011;53413;49.878;8.142;2022-09-09T07:52:53;6.73;;;2.30;;
66559;SDS011;53413;49.878;8.142;2022-09-09T07:55:22;6.97;;;2.30;;
66559;SDS011;53413;49.878;8.142;2022-09-09T07:57:50;6.30;;;2.50;;
66559;SDS011;53413;49.878;8.142;2022-09-09T08:00:16;6.50;;;2.50;;
66559;SDS011;53413;49.878;8.142;2022-09-09T08:02:41;6.00;;;2.42;;
66559;SDS011;53413;49.878;8.142;2022-09-09T08:05:07;5.90;;;2.40;;
66559;SDS011;53413;49.878;8.142;2022-09-09T08:07:32;6.10;;;2.30;;
66559;SDS011;53413;49.878;8.142;2022-09-09T08:09:58;6.00;;;2.00;;
66559;SDS011;53413;49.878;8.142;2022-09-09T08:12:23;7.38;;;2.33;;
66559;SDS011;53413;49.878;8.142;2022-09-09T08:14:49;5.57;;;2.20;;
66559;SDS011;53413;49.878;8.142;2022-09-09T08:17:14;6.23;;;2.27;;
66559;SDS011;53413;49.878;8.142;2022-09-09T08:19:40;5.80;;;2.20;;
66559;SDS011;53413;49.878;8.142;2022-09-09T08:22:05;5.77;;;2.13;;
66559;SDS011;53413;49.878;8.142;2022-09-09T08:24:30;7.07;;;2.55;;
66559;SDS011;53413;49.878;8.142;2022-09-09T08:26:56;5.97;;;2.20;;
66559;SDS011;53413;49.878;8.142;2022-09-09T08:29:22;6.07;;;2.27;;
66559;SDS011;53413;49.878;8.142;2022-09-09T08:31:49;6.03;;;2.20;;
66559;SDS011;53413;49.878;8.142;2022-09-09T08:34:16;5.85;;;2.10;;
66559;SDS011;53413;49.878;8.142;2022-09-09T08:36:45;8.02;;;2.10;;
66559;SDS011;53413;49.878;8.142;2022-09-09T08:39:13;6.10;;;2.00;;
66559;SDS011;53413;49.878;8.142;2022-09-09T08:53:04;5.60;;;1.50;;
66559;SDS011;53413;49.878;8.142;2022-09-09T08:58:27;4.90;;;1.30;;
66559;SDS011;53413;49.878;8.142;2022-09-09T09:11:40;5.38;;;1.50;;
66559;SDS011;53413;49.878;8.142;2022-09-09T09:14:22;5.32;;;1.50;;
66559;SDS011;53413;49.878;8.142;2022-09-09T09:16:53;5.18;;;1.67;;
66559;SDS011;53413;49.878;8.142;2022-09-09T09:19:22;5.37;;;1.53;;
66559;SDS011;53413;49.878;8.142;2022-09-09T09:27:13;4.68;;;1.83;;
66559;SDS011;53413;49.878;8.142;2022-09-09T09:29:40;6.15;;;1.30;;
66559;SDS011;53413;49.878;8.142;2022-09-09T09:32:08;4.80;;;1.60;;
66559;SDS011;53413;49.878;8.142;2022-09-09T09:34:38;5.20;;;1.50;;
66559;SDS011;53413;49.878;8.142;2022-09-09T09:37:07;5.37;;;2.17;;
66559;SDS011;53413;49.878;8.142;2022-09-09T09:39:42;5.03;;;1.70;;
66559;SDS011;53413;49.878;8.142;2022-09-09T09:42:17;5.38;;;1.50;;
66559;SDS011;53413;49.878;8.142;2022-09-09T09:44:43;5.43;;;1.50;;
66559;SDS011;53413;49.878;8.142;2022-09-09T09:47:18;5.30;;;2.00;;
66559;SDS011;53413;49.878;8.142;2022-09-09T09:49:55;5.47;;;1.67;;
66559;SDS011;53413;49.878;8.142;2022-09-09T09:52:28;4.07;;;1.30;;
66559;SDS011;53413;49.878;8.142;2022-09-09T09:54:55;5.28;;;1.65;;
66559;SDS011;53413;49.878;8.142;2022-09-09T09:57:31;5.93;;;1.53;;
66559;SDS011;53413;49.878;8.142;2022-09-09T10:00:17;6.00;;;1.60;;
66559;SDS011;53413;49.878;8.142;2022-09-09T10:02:43;4.90;;;1.40;;
66559;SDS011;53413;49.878;8.142;2022-09-09T10:05:21;5.55;;;1.52;;
66559;SDS011;53413;49.878;8.142;2022-09-09T10:13:25;4.78;;;1.60;;
66559;SDS011;53413;49.878;8.142;2022-09-09T10:18:59;4.40;;;1.38;;
66559;SDS011;53413;49.878;8.142;2022-09-09T10:38:03;6.17;;;1.70;;
66559;SDS011;53413;49.878;8.142;2022-09-09T10:40:41;5.43;;;1.80;;
66559;SDS011;53413;49.878;8.142;2022-09-09T10:54:51;5.90;;;1.50;;
66559;SDS011;53413;49.878;8.142;2022-09-09T10:59:58;5.22;;;1.50;;
66559;SDS011;53413;49.878;8.142;2022-09-09T11:02:31;7.57;;;1.70;;
66559;SDS011;53413;49.878;8.142;2022-09-09T11:05:03;5.90;;;1.70;;
66559;SDS011;53413;49.878;8.142;2022-09-09T11:10:06;5.00;;;1.60;;
66559;SDS011;53413;49.878;8.142;2022-09-09T11:12:46;4.82;;;1.50;;
66559;SDS011;53413;49.878;8.142;2022-09-09T11:15:17;5.97;;;1.50;;
66559;SDS011;53413;49.878;8.142;2022-09-09T11:17:58;4.75;;;1.38;;
66559;SDS011;53413;49.878;8.142;2022-09-09T11:20:26;6.80;;;1.50;;
66559;SDS011;53413;49.878;8.142;2022-09-09T11:22:54;4.10;;;1.30;;
66559;SDS011;53413;49.878;8.142;2022-09-09T11:25:39;4.38;;;1.23;;
66559;SDS011;53413;49.878;8.142;2022-09-09T11:30:54;5.80;;;1.30;;
66559;SDS011;53413;49.878;8.142;2022-09-09T11:33:37;5.13;;;1.40;;
66559;SDS011;53413;49.878;8.142;2022-09-09T11:41:38;4.18;;;1.10;;
66559;SDS011;53413;49.878;8.142;2022-09-09T11:44:11;4.00;;;1.07;;
66559;SDS011;53413;49.878;8.142;2022-09-09T11:46:39;5.13;;;1.10;;
66559;SDS011;53413;49.878;8.142;2022-09-09T11:49:06;5.80;;;1.15;;
66559;SDS011;53413;49.878;8.142;2022-09-09T11:51:51;4.78;;;1.00;;
66559;SDS011;53413;49.878;8.142;2022-09-09T11:54:33;4.40;;;1.08;;
66559;SDS011;53413;49.878;8.142;2022-09-09T11:57:25;5.05;;;1.20;;
66559;SDS011;53413;49.878;8.142;2022-09-09T11:59:57;5.53;;;1.10;;
66559;SDS011;53413;49.878;8.142;2022-09-09T12:02:24;5.38;;;1.20;;
66559;SDS011;53413;49.878;8.142;2022-09-09T12:07:35;4.90;;;1.10;;
66559;SDS011;53413;49.878;8.142;2022-09-09T12:10:25;4.05;;;1.17;;
66559;SDS011;53413;49.878;8.142;2022-09-09T12:12:54;6.97;;;1.48;;
66559;SDS011;53413;49.878;8.142;2022-09-09T12:15:27;4.97;;;1.30;;
66559;SDS011;53413;49.878;8.142;2022-09-09T12:17:54;4.82;;;1.30;;
66559;SDS011;53413;49.878;8.142;2022-09-09T12:25:41;4.50;;;0.90;;
66559;SDS011;53413;49.878;8.142;2022-09-09T12:28:27;3.47;;;0.85;;
66559;SDS011;53413;49.878;8.142;2022-09-09T12:31:18;3.85;;;0.90;;
66559;SDS011;53413;49.878;8.142;2022-09-09T12:33:50;3.58;;;0.90;;
66559;SDS011;53413;49.878;8.142;2022-09-09T12:36:38;3.40;;;1.10;;
66559;SDS011;53413;49.878;8.142;2022-09-09T12:42:04;3.78;;;0.90;;
66559;SDS011;53413;49.878;8.142;2022-09-09T12:44:29;4.60;;;1.00;;
66559;SDS011;53413;49.878;8.142;2022-09-09T12:46:55;3.60;;;1.00;;
66559;SDS011;53413;49.878;8.142;2022-09-09T12:49:29;3.38;;;0.80;;
66559;SDS011;53413;49.878;8.142;2022-09-09T12:52:06;4.38;;;0.90;;
66559;SDS011;53413;49.878;8.142;2022-09-09T12:54:35;2.72;;;0.80;;
66559;SDS011;53413;49.878;8.142;2022-09-09T12:57:02;2.97;;;0.88;;
66559;SDS011;53413;49.878;8.142;2022-09-09T12:59:36;3.03;;;0.73;;
66559;SDS011;53413;49.878;8.142;2022-09-09T13:02:11;2.15;;;0.65;;
66559;SDS011;53413;49.878;8.142;2022-09-09T13:04:43;2.67;;;0.65;;
66559;SDS011;53413;49.878;8.142;2022-09-09T13:07:09;1.90;;;0.60;;
66559;SDS011;53413;49.878;8.142;2022-09-09T13:09:36;1.95;;;0.68;;
66559;SDS011;53413;49.878;8.142;2022-09-09T13:12:02;3.28;;;0.88;;
66559;SDS011;53413;49.878;8.142;2022-09-09T13:14:33;3.07;;;0.70;;
66559;SDS011;53413;49.878;8.142;2022-09-09T13:17:03;2.45;;;0.60;;
66559;SDS011;53413;49.878;8.142;2022-09-09T13:19:37;2.38;;;0.60;;
66559;SDS011;53413;49.878;8.142;2022-09-09T13:22:16;2.60;;;0.70;;
66559;SDS011;53413;49.878;8.142;2022-09-09T13:24:58;2.20;;;0.60;;
66559;SDS011;53413;49.878;8.142;2022-09-09T13:27:32;3.33;;;0.70;;
66559;SDS011;53413;49.878;8.142;2022-09-09T13:29:59;3.88;;;0.80;;
66559;SDS011;53413;49.878;8.142;2022-09-09T13:32:25;3.03;;;0.70;;
66559;SDS011;53413;49.878;8.142;2022-09-09T13:39:58;3.58;;;0.90;;
66559;SDS011;53413;49.878;8.142;2022-09-09T13:42:26;4.90;;;1.23;;
66559;SDS011;53413;49.878;8.142;2022-09-09T13:44:55;4.10;;;0.80;;
66559;SDS011;53413;49.878;8.142;2022-09-09T13:47:26;3.50;;;0.90;;
66559;SDS011;53413;49.878;8.142;2022-09-09T13:49:55;3.77;;;0.90;;
66559;SDS011;53413;49.878;8.142;2022-09-09T13:52:20;3.58;;;0.80;;
66559;SDS011;53413;49.878;8.142;2022-09-09T13:54:50;3.90;;;0.90;;
66559;SDS011;53413;49.878;8.142;2022-09-09T13:57:21;4.60;;;1.00;;
66559;SDS011;53413;49.878;8.142;2022-09-09T13:59:48;2.90;;;0.90;;
66559;SDS011;53413;49.878;8.142;2022-09-09T14:02:14;4.67;;;1.00;;
66559;SDS011;53413;49.878;8.142;2022-09-09T14:04:41;3.72;;;1.10;;
66559;SDS011;53413;49.878;8.142;2022-09-09T14:07:16;3.93;;;0.93;;
66559;SDS011;53413;49.878;8.142;2022-09-09T14:09:42;3.72;;;1.00;;
66559;SDS011;53413;49.878;8.142;2022-09-09T14:12:09;3.93;;;0.97;;
66559;SDS011;53413;49.878;8.142;2022-09-09T14:14:36;4.88;;;1.15;;
66559;SDS011;53413;49.878;8.142;2022-09-09T14:17:02;3.97;;;1.00;;
66559;SDS011;53413;49.878;8.142;2022-09-09T14:19:28;4.82;;;1.00;;
66559;SDS011;53413;49.878;8.142;2022-09-09T14:21:54;3.35;;;1.00;;
66559;SDS011;53413;49.878;8.142;2022-09-09T14:24:19;4.50;;;0.90;;
66559;SDS011;53413;49.878;8.142;2022-09-09T14:26:44;3.70;;;1.00;;
66559;SDS011;53413;49.878;8.142;2022-09-09T14:29:10;4.17;;;1.00;;
66559;SDS011;53413;49.878;8.142;2022-09-09T14:31:35;3.33;;;1.00;;
66559;SDS011;53413;49.878;8.142;2022-09-09T14:34:00;3.28;;;0.95;;
66559;SDS011;53413;49.878;8.142;2022-09-09T14:36:26;4.23;;;1.03;;
66559;SDS011;53413;49.878;8.142;2022-09-09T14:38:51;3.87;;;1.00;;
66559;SDS011;53413;49.878;8.142;2022-09-09T14:41:18;4.07;;;1.07;;
66559;SDS011;53413;49.878;8.142;2022-09-09T14:43:45;4.28;;;1.00;;
66559;SDS011;53413;49.878;8.142;2022-09-09T14:46:12;5.72;;;1.20;;
66559;SDS011;53413;49.878;8.142;2022-09-09T14:48:42;4.35;;;1.30;;
66559;SDS011;53413;49.878;8.142;2022-09-09T14:51:09;4.63;;;1.30;;
66559;SDS011;53413;49.878;8.142;2022-09-09T14:53:37;4.90;;;1.17;;
66559;SDS011;53413;49.878;8.142;2022-09-09T14:56:07;4.20;;;1.20;;
66559;SDS011;53413;49.878;8.142;2022-09-09T14:58:35;4.63;;;1.10;;
66559;SDS011;53413;49.878;8.142;2022-09-09T15:01:05;4.10;;;1.30;;
66559;SDS011;53413;49.878;8.142;2022-09-09T15:03:35;4.10;;;1.00;;
66559;SDS011;53413;49.878;8.142;2022-09-09T15:06:05;4.20;;;1.00;;
66559;SDS011;53413;49.878;8.142;2022-09-09T15:08:36;5.10;;;1.00;;
66559;SDS011;53413;49.878;8.142;2022-09-09T15:11:03;4.07;;;1.20;;
66559;SDS011;53413;49.878;8.142;2022-09-09T15:13:30;3.60;;;0.98;;
66559;SDS011;53413;49.878;8.142;2022-09-09T15:16:00;4.45;;;1.10;;
66559;SDS011;53413;49.878;8.142;2022-09-09T15:18:29;3.45;;;0.90;;
66559;SDS011;53413;49.878;8.142;2022-09-09T15:20:54;4.53;;;1.00;;
66559;SDS011;53413;49.878;8.142;2022-09-09T15:23:19;5.43;;;0.90;;
66559;SDS011;53413;49.878;8.142;2022-09-09T15:25:54;3.28;;;1.00;;
66559;SDS011;53413;49.878;8.142;2022-09-09T15:28:21;4.20;;;1.00;;
66559;SDS011;53413;49.878;8.142;2022-09-09T15:30:48;3.85;;;0.90;;
66559;SDS011;53413;49.878;8.142;2022-09-09T15:33:14;3.90;;;0.85;;
66559;SDS011;53413;49.878;8.142;2022-09-09T15:35:40;3.60;;;0.90;;
66559;SDS011;53413;49.878;8.142;2022-09-09T15:38:05;5.47;;;0.82;;
66559;SDS011;53413;49.878;8.142;2022-09-09T15:40:31;3.88;;;0.90;;
66559;SDS011;53413;49.878;8.142;2022-09-09T15:42:59;3.83;;;0.83;;
66559;SDS011;53413;49.878;8.142;2022-09-09T15:45:24;3.13;;;0.77;;
66559;SDS011;53413;49.878;8.142;2022-09-09T15:47:50;3.73;;;0.80;;
66559;SDS011;53413;49.878;8.142;2022-09-09T15:50:16;3.22;;;0.85;;
66559;SDS011;53413;49.878;8.142;2022-09-09T15:52:42;2.90;;;0.80;;
66559;SDS011;53413;49.878;8.142;2022-09-09T15:55:07;3.70;;;0.90;;
66559;SDS011;53413;49.878;8.142;2022-09-09T15:57:33;2.90;;;0.80;;
66559;SDS011;53413;49.878;8.142;2022-09-09T15:59:59;3.13;;;0.90;;
66559;SDS011;53413;49.878;8.142;2022-09-09T16:02:25;3.10;;;0.80;;
66559;SDS011;53413;49.878;8.142;2022-09-09T16:04:51;3.03;;;0.93;;
66559;SDS011;53413;49.878;8.142;2022-09-09T16:07:16;3.37;;;0.80;;
66559;SDS011;53413;49.878;8.142;2022-09-09T16:09:42;3.53;;;0.90;;
66559;SDS011;53413;49.878;8.142;2022-09-09T16:12:08;3.67;;;0.70;;
66559;SDS011;53413;49.878;8.142;2022-09-09T16:14:36;3.03;;;0.80;;
66559;SDS011;53413;49.878;8.142;2022-09-09T16:17:04;3.08;;;0.88;;
66559;SDS011;53413;49.878;8.142;2022-09-09T16:19:30;3.47;;;0.90;;
66559;SDS011;53413;49.878;8.142;2022-09-09T16:21:59;3.67;;;0.90;;
66559;SDS011;53413;49.878;8.142;2022-09-09T16:24:25;3.53;;;0.90;;
66559;SDS011;53413;49.878;8.142;2022-09-09T16:26:51;4.30;;;0.90;;
66559;SDS011;53413;49.878;8.142;2022-09-09T16:29:19;4.75;;;1.00;;
66559;SDS011;53413;49.878;8.142;2022-09-09T16:31:46;4.55;;;1.00;;
66559;SDS011;53413;49.878;8.142;2022-09-09T16:34:12;3.80;;;1.00;;
66559;SDS011;53413;49.878;8.142;2022-09-09T16:36:39;4.10;;;1.08;;
66559;SDS011;53413;49.878;8.142;2022-09-09T16:39:07;3.40;;;0.90;;
66559;SDS011;53413;49.878;8.142;2022-09-09T16:41:36;3.88;;;1.13;;
66559;SDS011;53413;49.878;8.142;2022-09-09T16:44:03;3.90;;;1.10;;
66559;SDS011;53413;49.878;8.142;2022-09-09T16:46:31;4.00;;;1.08;;
66559;SDS011;53413;49.878;8.142;2022-09-09T16:48:59;5.22;;;1.17;;
66559;SDS011;53413;49.878;8.142;2022-09-09T16:51:26;4.93;;;1.30;;
66559;SDS011;53413;49.878;8.142;2022-09-09T16:54:03;4.60;;;1.20;;
66559;SDS011;53413;49.878;8.142;2022-09-09T16:56:32;3.60;;;1.05;;
66559;SDS011;53413;49.878;8.142;2022-09-09T16:58:59;5.68;;;1.30;;
66559;SDS011;53413;49.878;8.142;2022-09-09T17:01:27;5.22;;;1.40;;
66559;SDS011;53413;49.878;8.142;2022-09-09T17:04:02;4.53;;;1.37;;
66559;SDS011;53413;49.878;8.142;2022-09-09T17:06:30;4.05;;;1.00;;
66559;SDS011;53413;49.878;8.142;2022-09-09T17:09:00;5.65;;;1.10;;
66559;SDS011;53413;49.878;8.142;2022-09-09T17:11:28;3.75;;;0.90;;
66559;SDS011;53413;49.878;8.142;2022-09-09T17:13:54;4.95;;;0.90;;
66559;SDS011;53413;49.878;8.142;2022-09-09T17:16:23;3.90;;;0.90;;
66559;SDS011;53413;49.878;8.142;2022-09-09T17:18:52;6.13;;;1.10;;
66559;SDS011;53413;49.878;8.142;2022-09-09T17:21:20;4.97;;;1.00;;
66559;SDS011;53413;49.878;8.142;2022-09-09T17:23:47;5.45;;;1.08;;
66559;SDS011;53413;49.878;8.142;2022-09-09T17:26:16;5.40;;;0.90;;
66559;SDS011;53413;49.878;8.142;2022-09-09T17:28:43;3.03;;;0.70;;
66559;SDS011;53413;49.878;8.142;2022-09-09T17:31:10;4.45;;;0.90;;